Terminal Aerodrome Forecast
Issued by NWS Quad Cities IA IL

Home | Current Version | Previous Version | Text Only | Print | Product List | Glossary On
Versions: 1 2 3 4 5 6 7 8 9 10 11 12 13 14 15 16 17 18 19
000
FTUS43 KDVN 221400 AAA
TAFMLI
TAF AMD
KMLI 221408Z 2214/2312 34014G20KT P6SM SKC
     FM222300 34008KT P6SM SCT250
     FM230700 06004KT P6SM BKN250=

USA.gov is the U.S. government's official web portal to all federal, state and local government web resources and services.